Time,TemperatureF,DewpointF,PressureIn,WindDirection,WindDirectionDegrees,WindSpeedMPH,WindSpeedGustMPH,Humidity,HourlyPrecipIn,Conditions,Clouds,dailyrainin,SoftwareType,DateUTC
2013-04-18 00:07:00,63.3,57.0,30.23,East,81,0.0,1.0,79,0.00,,,0.00,weatherlink.com 1.10,2013-04-18 04:07:00,
2013-04-18 00:22:00,63.2,57.0,30.22,East,99,1.0,4.0,79,0.00,,,0.00,weatherlink.com 1.10,2013-04-18 04:22:00,
2013-04-18 00:37:00,63.3,56.0,30.21,ESE,103,0.0,5.0,78,0.00,,,0.00,weatherlink.com 1.10,2013-04-18 04:37:00,
2013-04-18 00:52:00,63.2,56.0,30.21,ESE,107,0.0,2.0,78,0.00,,,0.00,weatherlink.com 1.10,2013-04-18 04:52:00,
2013-04-18 01:07:00,63.2,56.0,30.21,East,99,0.0,2.0,78,0.00,,,0.00,weatherlink.com 1.10,2013-04-18 05:07:00,
2013-04-18 01:22:00,63.1,56.0,30.22,East,99,0.0,2.0,78,0.00,,,0.00,weatherlink.com 1.10,2013-04-18 05:22:00,
2013-04-18 01:37:00,63.1,56.0,30.21,SE,125,0.0,4.0,78,0.00,,,0.00,weatherlink.com 1.10,2013-04-18 05:37:00,
2013-04-18 01:52:00,63.0,56.0,30.21,ESE,119,1.0,2.0,78,0.00,,,0.00,weatherlink.com 1.10,2013-04-18 05:52:00,
2013-04-18 02:07:00,62.9,56.0,30.22,East,91,2.0,5.0,78,0.00,,,0.00,weatherlink.com 1.10,2013-04-18 06:07:00,
2013-04-18 02:22:00,62.6,56.0,30.20,ESE,109,0.0,7.0,79,0.00,,,0.00,weatherlink.com 1.10,2013-04-18 06:22:00,
2013-04-18 02:37:00,62.4,56.0,30.20,ESE,118,4.0,5.0,80,0.00,,,0.00,weatherlink.com 1.10,2013-04-18 06:37:00,
2013-04-18 02:53:00,62.1,56.0,30.20,East,101,0.0,5.0,81,0.00,,,0.00,weatherlink.com 1.10,2013-04-18 06:53:00,
2013-04-18 03:08:00,62.0,56.0,30.19,East,88,4.0,5.0,82,0.00,,,0.00,weatherlink.com 1.10,2013-04-18 07:08:00,
2013-04-18 03:23:00,61.9,57.0,30.19,SE,124,1.0,5.0,83,0.00,,,0.00,weatherlink.com 1.10,2013-04-18 07:23:00,
2013-04-18 03:38:00,61.6,57.0,30.19,East,92,0.0,6.0,84,0.00,,,0.00,weatherlink.com 1.10,2013-04-18 07:38:00,
2013-04-18 03:53:00,61.6,57.0,30.19,East,100,0.0,4.0,84,0.00,,,0.00,weatherlink.com 1.10,2013-04-18 07:53:00,
2013-04-18 04:08:00,61.6,57.0,30.19,ESE,117,0.0,2.0,85,0.00,,,0.00,weatherlink.com 1.10,2013-04-18 08:08:00,
2013-04-18 04:23:00,61.6,57.0,30.19,East,97,0.0,2.0,84,0.00,,,0.00,weatherlink.com 1.10,2013-04-18 08:23:00,
2013-04-18 04:38:00,61.5,57.0,30.19,ESE,105,2.0,4.0,84,0.00,,,0.00,weatherlink.com 1.10,2013-04-18 08:38:00,
2013-04-18 04:53:00,61.5,57.0,30.18,ESE,106,0.0,5.0,84,0.00,,,0.00,weatherlink.com 1.10,2013-04-18 08:53:00,
2013-04-18 05:08:00,61.4,57.0,30.18,ESE,107,2.0,2.0,85,0.00,,,0.00,weatherlink.com 1.10,2013-04-18 09:08:00,
2013-04-18 05:23:00,61.3,57.0,30.18,SE,136,0.0,4.0,85,0.00,,,0.00,weatherlink.com 1.10,2013-04-18 09:23:00,
2013-04-18 05:38:00,61.3,57.0,30.19,SSE,155,0.0,5.0,86,0.00,,,0.00,weatherlink.com 1.10,2013-04-18 09:38:00,
2013-04-18 05:53:00,60.9,57.0,30.18,ENE,65,4.0,5.0,87,0.00,,,0.00,weatherlink.com 1.10,2013-04-18 09:53:00,
2013-04-18 06:08:00,60.8,57.0,30.18,ESE,108,1.0,7.0,88,0.00,,,0.00,weatherlink.com 1.10,2013-04-18 10:08:00,
2013-04-18 06:23:00,60.8,57.0,30.19,ESE,120,3.0,4.0,88,0.00,,,0.00,weatherlink.com 1.10,2013-04-18 10:23:00,
2013-04-18 06:38:00,60.8,57.0,30.19,East,81,0.0,5.0,88,0.00,,,0.00,weatherlink.com 1.10,2013-04-18 10:38:00,
2013-04-18 06:53:00,60.9,57.0,30.19,East,86,0.0,4.0,88,0.00,,,0.00,weatherlink.com 1.10,2013-04-18 10:53:00,
2013-04-18 07:08:00,61.0,58.0,30.20,East,86,0.0,1.0,89,0.00,,,0.00,weatherlink.com 1.10,2013-04-18 11:08:00,
2013-04-18 07:23:00,61.0,58.0,30.20,ENE,74,0.0,1.0,89,0.00,,,0.00,weatherlink.com 1.10,2013-04-18 11:23:00,
2013-04-18 07:38:00,60.8,58.0,30.20,ENE,69,0.0,4.0,91,0.00,,,0.00,weatherlink.com 1.10,2013-04-18 11:38:00,
2013-04-18 07:53:00,60.8,58.0,30.20,ESE,111,0.0,4.0,91,0.00,,,0.00,weatherlink.com 1.10,2013-04-18 11:53:00,
2013-04-18 08:08:00,60.9,58.0,30.21,ESE,117,0.0,2.0,91,0.00,,,0.00,weatherlink.com 1.10,2013-04-18 12:08:00,
2013-04-18 08:23:00,61.1,59.0,30.21,East,99,0.0,2.0,92,0.00,,,0.00,weatherlink.com 1.10,2013-04-18 12:23:00,
2013-04-18 08:38:00,61.4,59.0,30.21,East,100,0.0,1.0,91,0.00,,,0.00,weatherlink.com 1.10,2013-04-18 12:38:00,
2013-04-18 08:53:00,61.8,59.0,30.21,East,100,0.0,1.0,90,0.00,,,0.00,weatherlink.com 1.10,2013-04-18 12:53:00,
2013-04-18 09:08:00,61.7,59.0,30.21,East,90,0.0,2.0,90,0.00,,,0.00,weatherlink.com 1.10,2013-04-18 13:08:00,
2013-04-18 09:23:00,61.5,59.0,30.21,ESE,118,0.0,1.0,91,0.00,,,0.00,weatherlink.com 1.10,2013-04-18 13:23:00,
2013-04-18 09:38:00,61.4,59.0,30.21,ESE,110,0.0,2.0,91,0.00,,,0.00,weatherlink.com 1.10,2013-04-18 13:38:00,
2013-04-18 09:53:00,61.7,59.0,30.21,ESE,105,0.0,2.0,91,0.00,,,0.00,weatherlink.com 1.10,2013-04-18 13:53:00,
2013-04-18 10:08:00,62.3,60.0,30.21,East,100,0.0,4.0,91,0.00,,,0.00,weatherlink.com 1.10,2013-04-18 14:08:00,
2013-04-18 10:23:00,62.9,60.0,30.21,ENE,65,0.0,5.0,90,0.00,,,0.00,weatherlink.com 1.10,2013-04-18 14:23:00,
2013-04-18 10:38:00,63.2,60.0,30.21,East,96,0.0,4.0,90,0.00,,,0.00,weatherlink.com 1.10,2013-04-18 14:38:00,
2013-04-18 10:53:00,63.5,61.0,30.21,East,96,0.0,2.0,90,0.00,,,0.00,weatherlink.com 1.10,2013-04-18 14:53:00,
2013-04-18 11:08:00,64.0,61.0,30.20,ESE,112,0.0,5.0,90,0.00,,,0.00,weatherlink.com 1.10,2013-04-18 15:08:00,
2013-04-18 11:23:00,64.6,61.0,30.20,ESE,102,0.0,1.0,89,0.00,,,0.00,weatherlink.com 1.10,2013-04-18 15:23:00,
2013-04-18 11:38:00,64.9,62.0,30.20,SE,143,0.0,1.0,89,0.00,,,0.00,weatherlink.com 1.10,2013-04-18 15:38:00,
2013-04-18 11:53:00,65.4,62.0,30.19,SE,132,0.0,4.0,88,0.00,,,0.00,weatherlink.com 1.10,2013-04-18 15:53:00,
2013-04-18 12:08:00,65.9,62.0,30.19,SE,131,0.0,1.0,88,0.00,,,0.00,weatherlink.com 1.10,2013-04-18 16:08:00,
2013-04-18 12:23:00,66.7,62.0,30.18,SE,131,0.0,2.0,86,0.00,,,0.00,weatherlink.com 1.10,2013-04-18 16:23:00,
2013-04-18 12:38:00,67.1,63.0,30.17,ESE,109,0.0,2.0,85,0.00,,,0.00,weatherlink.com 1.10,2013-04-18 16:38:00,
2013-04-18 12:53:00,68.1,63.0,30.17,ESE,109,0.0,1.0,84,0.00,,,0.00,weatherlink.com 1.10,2013-04-18 16:53:00,
2013-04-18 13:08:00,69.9,64.0,30.16,ESE,121,4.0,5.0,81,0.00,,,0.00,weatherlink.com 1.10,2013-04-18 17:08:00,
2013-04-18 13:23:00,71.1,65.0,30.16,SSE,160,1.0,5.0,80,0.00,,,0.00,weatherlink.com 1.10,2013-04-18 17:23:00,
2013-04-18 13:38:00,72.6,64.0,30.15,SSW,211,3.0,7.0,75,0.00,,,0.00,weatherlink.com 1.10,2013-04-18 17:38:00,
2013-04-18 13:53:00,73.2,64.0,30.14,SSW,198,1.0,2.0,74,0.00,,,0.00,weatherlink.com 1.10,2013-04-18 17:53:00,
2013-04-18 14:09:00,75.1,65.0,30.13,SSE,157,1.0,7.0,71,0.00,,,0.00,weatherlink.com 1.10,2013-04-18 18:09:00,
2013-04-18 14:24:00,75.5,64.0,30.13,South,175,0.0,4.0,68,0.00,,,0.00,weatherlink.com 1.10,2013-04-18 18:24:00,
2013-04-18 14:39:00,75.9,65.0,30.12,South,190,0.0,4.0,68,0.00,,,0.00,weatherlink.com 1.10,2013-04-18 18:39:00,
2013-04-18 14:54:00,76.9,65.0,30.11,South,182,1.0,4.0,66,0.00,,,0.00,weatherlink.com 1.10,2013-04-18 18:54:00,
2013-04-18 15:09:00,77.5,64.0,30.10,SSW,209,1.0,5.0,64,0.00,,,0.00,weatherlink.com 1.10,2013-04-18 19:09:00,
2013-04-18 15:24:00,77.2,65.0,30.09,South,175,0.0,5.0,65,0.00,,,0.00,weatherlink.com 1.10,2013-04-18 19:24:00,
2013-04-18 15:39:00,77.6,63.0,30.08,SSE,164,0.0,9.0,62,0.00,,,0.00,weatherlink.com 1.10,2013-04-18 19:39:00,
2013-04-18 15:54:00,77.8,62.0,30.07,South,170,0.0,7.0,59,0.00,,,0.00,weatherlink.com 1.10,2013-04-18 19:54:00,
2013-04-18 16:09:00,78.4,62.0,30.07,South,172,0.0,4.0,58,0.00,,,0.00,weatherlink.com 1.10,2013-04-18 20:09:00,
2013-04-18 16:24:00,77.9,61.0,30.06,South,173,3.0,4.0,57,0.00,,,0.00,weatherlink.com 1.10,2013-04-18 20:24:00,
2013-04-18 16:39:00,79.0,62.0,30.05,South,177,0.0,5.0,56,0.00,,,0.00,weatherlink.com 1.10,2013-04-18 20:39:00,
2013-04-18 16:54:00,78.9,61.0,30.05,SSW,205,2.0,5.0,55,0.00,,,0.00,weatherlink.com 1.10,2013-04-18 20:54:00,
2013-04-18 17:09:00,78.8,62.0,30.05,South,178,1.0,6.0,56,0.00,,,0.00,weatherlink.com 1.10,2013-04-18 21:09:00,
2013-04-18 17:24:00,78.6,60.0,30.05,South,173,3.0,6.0,54,0.00,,,0.00,weatherlink.com 1.10,2013-04-18 21:24:00,
2013-04-18 17:39:00,78.3,61.0,30.05,ESE,111,3.0,3.0,56,0.00,,,0.00,weatherlink.com 1.10,2013-04-18 21:39:00,
2013-04-18 17:54:00,79.4,62.0,30.04,SSE,168,2.0,6.0,55,0.00,,,0.00,weatherlink.com 1.10,2013-04-18 21:54:00,
2013-04-18 18:09:00,78.0,60.0,30.04,South,182,3.0,6.0,55,0.00,,,0.00,weatherlink.com 1.10,2013-04-18 22:09:00,
2013-04-18 18:24:00,78.5,61.0,30.04,South,178,0.0,2.0,55,0.00,,,0.00,weatherlink.com 1.10,2013-04-18 22:24:00,
2013-04-18 18:39:00,77.6,61.0,30.04,South,184,0.0,5.0,57,0.00,,,0.00,weatherlink.com 1.10,2013-04-18 22:39:00,
2013-04-18 18:54:00,76.5,61.0,30.03,SSE,154,0.0,8.0,59,0.00,,,0.00,weatherlink.com 1.10,2013-04-18 22:54:00,
2013-04-18 19:09:00,75.7,61.0,30.03,SE,144,1.0,7.0,61,0.00,,,0.00,weatherlink.com 1.10,2013-04-18 23:09:00,
2013-04-18 19:24:00,74.7,61.0,30.03,SSE,157,0.0,4.0,63,0.00,,,0.00,weatherlink.com 1.10,2013-04-18 23:24:00,
2013-04-18 19:39:00,73.7,61.0,30.03,SSE,157,0.0,2.0,64,0.00,,,0.00,weatherlink.com 1.10,2013-04-18 23:39:00,
2013-04-18 19:54:00,72.8,60.0,30.03,SE,136,0.0,4.0,65,0.00,,,0.00,weatherlink.com 1.10,2013-04-18 23:54:00,
2013-04-18 20:09:00,71.9,60.0,30.04,ESE,103,0.0,2.0,67,0.00,,,0.00,weatherlink.com 1.10,2013-04-19 00:09:00,
2013-04-18 20:24:00,71.3,60.0,30.04,South,171,1.0,5.0,67,0.00,,,0.00,weatherlink.com 1.10,2013-04-19 00:24:00,
2013-04-18 20:39:00,70.7,59.0,30.04,SSW,192,5.0,5.0,66,0.00,,,0.00,weatherlink.com 1.10,2013-04-19 00:39:00,
2013-04-18 20:54:00,70.2,59.0,30.04,SSE,148,0.0,5.0,67,0.00,,,0.00,weatherlink.com 1.10,2013-04-19 00:54:00,
2013-04-18 21:09:00,69.7,59.0,30.04,South,184,0.0,2.0,68,0.00,,,0.00,weatherlink.com 1.10,2013-04-19 01:09:00,
2013-04-18 21:24:00,69.1,59.0,30.03,South,182,1.0,4.0,70,0.00,,,0.00,weatherlink.com 1.10,2013-04-19 01:24:00,
2013-04-18 21:39:00,68.8,59.0,30.03,South,175,1.0,4.0,71,0.00,,,0.00,weatherlink.com 1.10,2013-04-19 01:39:00,
2013-04-18 21:54:00,68.4,59.0,30.03,SSE,148,1.0,5.0,72,0.00,,,0.00,weatherlink.com 1.10,2013-04-19 01:54:00,
2013-04-18 22:09:00,68.0,59.0,30.04,South,178,0.0,6.0,73,0.00,,,0.00,weatherlink.com 1.10,2013-04-19 02:09:00,
2013-04-18 22:24:00,67.6,59.0,30.03,South,183,0.0,5.0,74,0.00,,,0.00,weatherlink.com 1.10,2013-04-19 02:24:00,
2013-04-18 22:39:00,67.2,59.0,30.02,ESE,109,0.0,5.0,75,0.00,,,0.00,weatherlink.com 1.10,2013-04-19 02:39:00,
2013-04-18 22:54:00,66.9,59.0,30.02,SSE,161,0.0,2.0,76,0.00,,,0.00,weatherlink.com 1.10,2013-04-19 02:54:00,
2013-04-18 23:09:00,66.5,59.0,30.01,SSE,165,1.0,2.0,77,0.00,,,0.00,weatherlink.com 1.10,2013-04-19 03:09:00,
2013-04-18 23:24:00,66.4,59.0,30.01,SSE,166,0.0,2.0,77,0.00,,,0.00,weatherlink.com 1.10,2013-04-19 03:24:00,
2013-04-18 23:39:00,65.9,59.0,30.01,ESE,113,0.0,2.0,78,0.00,,,0.00,weatherlink.com 1.10,2013-04-19 03:39:00,
2013-04-18 23:54:00,65.8,59.0,30.00,SE,135,0.0,2.0,78,0.00,,,0.00,weatherlink.com 1.10,2013-04-19 03:54:00,